Time;durP1;ratioP1;P1;durP2;ratioP2;P2;SDS_P1;SDS_P2;PMS_P1;PMS_P2;Temp;Humidity;BMP_temperature;BMP_pressure;BME280_temperature;BME280_humidity;BME280_pressure;Samples;Min_cycle;Max_cycle;Signal;HPM_P1;HPM_P2
2022/11/26 00:01:45;;;;;;;5.70;5.17;;;;;;;8.47;60.80;100017.91;5041432;28;20188;-55
2022/11/26 00:04:11;;;;;;;6.63;5.93;;;;;;;8.42;61.08;100011.75;5045317;28;20251;-55
2022/11/26 00:06:41;;;;;;;6.97;5.10;;;;;;;8.28;60.88;99993.38;5051566;28;20572;-56
2022/11/26 00:09:14;;;;;;;6.23;5.53;;;;;;;8.41;60.90;100014.25;5049499;28;20192;-55
2022/11/26 00:11:42;;;;;;;6.50;5.80;;;;;;;8.42;60.32;100016.88;5048673;28;20685;-55
2022/11/26 00:14:13;;;;;;;5.67;5.17;;;;;;;8.45;60.00;100022.09;5049690;28;20577;-56
2022/11/26 00:16:40;;;;;;;6.83;5.80;;;;;;;8.45;59.70;100016.13;5049862;28;20219;-56
2022/11/26 00:19:08;;;;;;;6.38;5.78;;;;;;;8.42;59.25;100013.44;5048288;28;20430;-56
2022/11/26 00:21:37;;;;;;;9.10;5.40;;;;;;;8.50;59.11;100023.13;5051135;28;20235;-55
2022/11/26 00:24:04;;;;;;;5.77;5.17;;;;;;;8.48;59.17;100031.56;5048753;28;20203;-55
2022/11/26 00:26:32;;;;;;;6.53;5.57;;;;;;;8.38;59.08;100026.97;5051498;28;20195;-55
2022/11/26 00:29:00;;;;;;;5.50;4.93;;;;;;;8.35;59.18;100022.59;5051397;28;20248;-56
2022/11/26 00:31:28;;;;;;;6.03;5.20;;;;;;;8.42;58.08;100022.00;5051125;28;20822;-55
2022/11/26 00:33:55;;;;;;;5.50;5.07;;;;;;;8.41;58.76;100025.38;5035699;28;20228;-55
2022/11/26 00:36:25;;;;;;;5.77;4.53;;;;;;;8.37;59.17;100022.66;5031838;28;20215;-55
2022/11/26 00:38:56;;;;;;;5.87;5.37;;;;;;;8.40;58.69;100031.34;5031730;28;20200;-55
2022/11/26 00:41:25;;;;;;;5.23;4.73;;;;;;;8.39;58.53;100026.13;5032149;28;20545;-55
2022/11/26 00:43:52;;;;;;;6.87;5.70;;;;;;;8.28;58.71;100024.09;5046962;28;20227;-55
2022/11/26 00:46:21;;;;;;;5.83;4.70;;;;;;;8.29;58.26;100030.09;5051804;28;20195;-55
2022/11/26 00:48:48;;;;;;;5.33;4.30;;;;;;;8.30;58.15;100019.03;5051670;28;20200;-55
2022/11/26 00:51:17;;;;;;;5.37;4.87;;;;;;;8.35;58.46;100022.59;5052157;28;20216;-55
2022/11/26 00:53:47;;;;;;;7.33;4.90;;;;;;;8.34;58.48;100023.44;5062620;28;20620;-55
2022/11/26 00:56:17;;;;;;;4.77;4.37;;;;;;;8.30;58.38;100026.69;5071976;28;20636;-55
2022/11/26 00:58:44;;;;;;;8.27;5.03;;;;;;;8.34;58.61;100031.13;5033527;28;20567;-55
2022/11/26 01:01:13;;;;;;;6.37;4.53;;;;;;;8.32;59.14;100023.38;5035353;28;20195;-55
2022/11/26 01:03:41;;;;;;;5.80;4.63;;;;;;;8.37;58.79;100025.22;5035132;28;20645;-55
2022/11/26 01:06:15;;;;;;;5.00;4.50;;;;;;;8.38;58.60;100025.25;5035161;28;20662;-55
2022/11/26 01:08:43;;;;;;;5.43;4.93;;;;;;;8.39;58.80;100036.38;5035240;28;20185;-55
2022/11/26 01:11:14;;;;;;;5.17;4.67;;;;;;;8.40;58.40;100033.00;5035543;28;20200;-55
2022/11/26 01:13:41;;;;;;;5.60;4.80;;;;;;;8.41;58.17;100030.50;5035384;28;20197;-55
2022/11/26 01:16:18;;;;;;;6.17;4.73;;;;;;;8.35;58.40;100022.59;5035102;28;20278;-55
2022/11/26 01:18:45;;;;;;;6.20;5.00;;;;;;;8.31;58.67;100025.91;5034924;28;20193;-55
2022/11/26 01:21:12;;;;;;;6.87;4.57;;;;;;;8.19;58.46;100017.75;5035153;28;20192;-55
2022/11/26 01:23:39;;;;;;;5.47;4.93;;;;;;;8.12;58.84;100020.94;5034969;28;20207;-55
2022/11/26 01:26:06;;;;;;;5.90;5.30;;;;;;;8.14;58.05;100022.72;5034512;28;20817;-55
2022/11/26 01:28:34;;;;;;;5.77;5.00;;;;;;;8.09;57.74;100023.38;5034939;28;20663;-55
2022/11/26 01:31:04;;;;;;;4.73;4.20;;;;;;;8.10;57.30;100023.44;5034856;28;20610;-55
2022/11/26 01:33:31;;;;;;;5.47;4.37;;;;;;;8.11;57.32;100026.88;5033307;28;20662;-55
2022/11/26 01:35:58;;;;;;;5.97;4.70;;;;;;;8.04;57.13;100035.16;4995352;28;20204;-55
2022/11/26 01:38:24;;;;;;;4.93;4.43;;;;;;;7.95;57.45;100028.03;4994323;28;20288;-55
2022/11/26 01:41:03;;;;;;;5.43;4.93;;;;;;;7.87;58.05;100021.78;4995627;28;20186;-55
2022/11/26 01:43:36;;;;;;;5.20;4.70;;;;;;;7.86;58.72;100020.03;4995213;28;20198;-55
2022/11/26 01:46:03;;;;;;;6.53;4.67;;;;;;;7.90;58.77;100021.88;4995095;28;20253;-53
2022/11/26 01:48:32;;;;;;;8.20;5.50;;;;;;;7.72;59.10;100001.63;4995177;28;20200;-55
2022/11/26 01:51:02;;;;;;;6.47;5.47;;;;;;;7.84;59.34;100018.22;4995207;28;20370;-55
2022/11/26 01:53:39;;;;;;;5.43;4.90;;;;;;;7.73;59.92;99999.94;5000053;28;20231;-54
2022/11/26 01:56:13;;;;;;;5.47;4.97;;;;;;;7.86;60.61;100016.59;5014119;28;20189;-54
2022/11/26 01:58:45;;;;;;;5.97;5.20;;;;;;;7.85;60.22;100023.41;5014414;28;20204;-54
2022/11/26 02:01:11;;;;;;;5.80;5.30;;;;;;;7.82;60.05;100019.88;5014434;28;20648;-54
2022/11/26 02:03:43;;;;;;;5.40;4.90;;;;;;;7.82;60.08;100019.88;5014483;28;20192;-54
2022/11/26 02:06:17;;;;;;;5.27;4.77;;;;;;;7.81;59.67;100024.13;5014564;28;20200;-54
2022/11/26 02:08:44;;;;;;;6.50;5.20;;;;;;;7.81;59.87;100025.78;5014638;28;20189;-54
2022/11/26 02:11:16;;;;;;;5.33;4.70;;;;;;;7.73;59.86;100026.41;5014407;28;20188;-54
2022/11/26 02:13:47;;;;;;;5.30;4.80;;;;;;;7.71;60.07;100022.06;5014299;28;20740;-54
2022/11/26 02:16:24;;;;;;;5.73;4.80;;;;;;;7.61;60.85;100030.19;5014078;28;20193;-54
2022/11/26 02:19:04;;;;;;;6.63;5.23;;;;;;;7.59;60.34;100036.94;5014243;28;20250;-54
2022/11/26 02:21:34;;;;;;;5.93;4.90;;;;;;;7.51;60.58;100036.66;5014173;28;20201;-54
2022/11/26 02:24:27;;;;;;;6.17;5.47;;;;;;;7.45;61.25;100039.00;5014463;28;20193;-55
2022/11/26 02:27:19;;;;;;;7.00;5.40;;;;;;;7.44;60.84;100037.28;5014219;28;20215;-54
2022/11/26 02:30:06;;;;;;;5.43;4.90;;;;;;;7.39;60.70;100038.75;5013818;28;20725;-54
2022/11/26 02:32:58;;;;;;;7.73;5.30;;;;;;;7.31;61.32;100035.03;5013918;28;20197;-54
2022/11/26 02:35:30;;;;;;;6.27;5.60;;;;;;;7.24;61.21;100040.75;5040391;28;20247;-54
2022/11/26 02:38:02;;;;;;;7.80;5.10;;;;;;;7.08;62.30;100020.53;5053467;28;20218;-54
2022/11/26 02:40:29;;;;;;;6.10;5.50;;;;;;;7.10;62.21;100039.34;5053335;28;20198;-53
2022/11/26 02:42:56;;;;;;;7.07;5.93;;;;;;;7.00;62.64;100034.72;5053254;28;20282;-53
2022/11/26 02:45:28;;;;;;;6.23;5.57;;;;;;;6.99;62.60;100038.06;5053233;28;20192;-53
2022/11/26 02:47:59;;;;;;;8.17;6.10;;;;;;;6.89;63.17;100030.88;5053302;28;20201;-54
2022/11/26 02:50:30;;;;;;;8.27;6.27;;;;;;;6.89;63.45;100041.97;5053919;28;20189;-54
2022/11/26 02:52:58;;;;;;;7.43;6.20;;;;;;;6.87;64.14;100046.09;5053358;28;20689;-54
2022/11/26 02:55:30;;;;;;;9.90;6.77;;;;;;;6.73;64.55;100046.41;5053394;28;20318;-54
2022/11/26 02:57:58;;;;;;;8.53;6.50;;;;;;;6.74;64.06;100053.22;5053305;28;20657;-54
2022/11/26 03:00:26;;;;;;;8.67;6.43;;;;;;;6.76;65.25;100060.13;5053047;28;20528;-54
2022/11/26 03:03:00;;;;;;;9.23;6.40;;;;;;;6.72;64.09;100059.97;5055551;28;20188;-54
2022/11/26 03:05:31;;;;;;;11.03;7.23;;;;;;;6.66;64.68;100055.47;5051119;28;20202;-55
2022/11/26 03:07:58;;;;;;;7.67;6.33;;;;;;;6.59;65.30;100070.50;5052171;28;20582;-54
2022/11/26 03:10:27;;;;;;;10.00;6.53;;;;;;;6.52;64.51;100065.13;5052270;28;20189;-55
2022/11/26 03:12:54;;;;;;;8.80;6.37;;;;;;;6.51;65.54;100073.59;5050104;28;20183;-55
2022/11/26 03:15:21;;;;;;;7.50;6.40;;;;;;;6.48;64.84;100070.91;5053047;28;20618;-54
2022/11/26 03:17:49;;;;;;;6.90;5.87;;;;;;;6.26;65.29;100039.34;5052642;28;20268;-54
2022/11/26 03:20:17;;;;;;;10.17;6.50;;;;;;;6.47;64.64;100075.97;5052398;28;20198;-54
2022/11/26 03:22:44;;;;;;;10.63;6.33;;;;;;;6.44;64.52;100079.25;5052506;28;20191;-53
2022/11/26 03:25:11;;;;;;;8.53;6.17;;;;;;;6.47;64.27;100079.38;5052931;28;20193;-53
2022/11/26 03:27:38;;;;;;;7.37;6.57;;;;;;;6.38;65.00;100073.88;5052630;28;20248;-53
2022/11/26 03:30:06;;;;;;;7.60;5.93;;;;;;;6.41;64.70;100088.47;5052566;28;20192;-54
2022/11/26 03:32:33;;;;;;;7.00;6.30;;;;;;;6.42;64.60;100091.09;5052450;28;20777;-59
2022/11/26 03:35:01;;;;;;;7.67;6.37;;;;;;;6.37;64.41;100086.59;5051822;28;20225;-53
2022/11/26 03:37:28;;;;;;;9.00;6.50;;;;;;;6.39;64.56;100096.06;5051529;28;20718;-54
2022/11/26 03:39:55;;;;;;;8.57;6.67;;;;;;;6.34;63.88;100097.56;5051720;28;20248;-54
2022/11/26 03:42:22;;;;;;;6.77;6.03;;;;;;;6.35;64.60;100109.47;5051556;28;20195;-54
2022/11/26 03:44:49;;;;;;;6.97;6.17;;;;;;;6.32;64.60;100117.00;5051612;28;20191;-54
2022/11/26 03:47:15;;;;;;;7.33;6.13;;;;;;;6.19;64.38;100122.41;5051445;28;20594;-54
2022/11/26 03:49:42;;;;;;;11.13;8.03;;;;;;;6.27;65.44;100121.03;5051098;28;20790;-54
2022/11/26 03:52:10;;;;;;;10.07;6.33;;;;;;;6.18;64.87;100107.88;5051369;28;20601;-53
2022/11/26 03:54:37;;;;;;;7.83;6.80;;;;;;;6.28;64.43;100127.03;5051393;28;20186;-54
2022/11/26 03:57:04;;;;;;;9.80;6.20;;;;;;;6.28;65.01;100127.91;5051266;28;20192;-54
2022/11/26 03:59:31;;;;;;;7.23;6.40;;;;;;;6.32;65.04;100134.88;5051099;28;20702;-53
2022/11/26 04:01:58;;;;;;;7.77;6.97;;;;;;;6.37;65.00;100138.47;5052025;28;20252;-54
2022/11/26 04:04:24;;;;;;;8.53;6.90;;;;;;;6.33;64.45;100148.50;5051090;28;20574;-54
2022/11/26 04:06:51;;;;;;;7.80;7.00;;;;;;;6.36;64.03;100152.06;5050250;28;20813;-54
2022/11/26 04:09:19;;;;;;;7.73;6.20;;;;;;;6.35;64.33;100149.44;5051189;28;20190;-54
2022/11/26 04:11:46;;;;;;;6.53;5.87;;;;;;;6.38;63.97;100167.44;5051134;28;20205;-54
2022/11/26 04:14:13;;;;;;;9.50;6.33;;;;;;;6.27;63.87;100163.53;5050882;28;20657;-54
2022/11/26 04:16:40;;;;;;;7.63;6.13;;;;;;;6.19;64.47;100170.88;5051167;28;20190;-53
2022/11/26 04:19:07;;;;;;;7.37;5.80;;;;;;;6.19;64.43;100168.31;5050921;28;20633;-54
2022/11/26 04:21:33;;;;;;;15.63;10.33;;;;;;;6.20;64.64;100166.66;5051106;28;20257;-54
2022/11/26 04:24:00;;;;;;;16.83;10.43;;;;;;;6.11;64.97;100164.56;5050953;28;20194;-55
2022/11/26 04:26:28;;;;;;;15.93;9.63;;;;;;;6.12;65.33;100166.31;5050830;28;20207;-54
2022/11/26 04:28:55;;;;;;;14.63;10.23;;;;;;;6.11;65.44;100169.66;5051005;28;20205;-54
2022/11/26 04:31:22;;;;;;;14.30;9.20;;;;;;;6.04;66.13;100157.44;5051181;28;20198;-53
2022/11/26 04:33:49;;;;;;;16.73;9.97;;;;;;;6.13;65.60;100168.03;5008722;28;1257531;-54
2022/11/26 04:36:16;;;;;;;8.40;6.40;;;;;;;6.24;65.20;100174.50;5055900;28;20195;-54
2022/11/26 04:38:42;;;;;;;8.47;6.50;;;;;;;6.23;64.80;100182.97;5055667;28;20222;-54
2022/11/26 04:41:09;;;;;;;8.60;6.10;;;;;;;6.23;65.46;100187.19;5065319;28;20204;-54
2022/11/26 04:43:38;;;;;;;7.47;6.37;;;;;;;6.16;65.61;100178.38;5075591;28;20186;-54
2022/11/26 04:46:05;;;;;;;7.87;6.43;;;;;;;6.22;65.52;100188.88;5075538;28;20381;-54
2022/11/26 04:48:31;;;;;;;7.00;6.13;;;;;;;6.16;65.55;100196.25;5075675;28;20436;-54
2022/11/26 04:50:58;;;;;;;7.27;6.20;;;;;;;6.15;64.38;100196.19;5075641;28;20197;-54
2022/11/26 04:53:25;;;;;;;10.37;6.30;;;;;;;6.11;64.77;100192.63;5075256;28;20191;-54
2022/11/26 04:55:52;;;;;;;8.10;6.23;;;;;;;6.15;64.89;100198.75;5075317;28;20720;-55
2022/11/26 04:58:21;;;;;;;9.53;6.93;;;;;;;6.17;65.48;100210.75;5073951;28;20270;-54
2022/11/26 05:00:49;;;;;;;7.73;6.70;;;;;;;6.19;65.32;100206.59;5062733;28;20220;-54
2022/11/26 05:03:16;;;;;;;8.00;6.40;;;;;;;6.19;65.24;100219.34;5055360;28;20215;-54
2022/11/26 05:05:43;;;;;;;7.40;6.50;;;;;;;6.21;65.21;100221.94;5055324;28;20188;-54
2022/11/26 05:08:10;;;;;;;8.23;6.20;;;;;;;6.18;65.19;100220.13;5062653;28;20211;-54
2022/11/26 05:10:36;;;;;;;6.83;6.03;;;;;;;6.14;65.12;100231.03;5056736;28;20203;-54
2022/11/26 05:13:03;;;;;;;8.50;6.30;;;;;;;6.16;64.88;100239.63;5065408;28;20206;-54
2022/11/26 05:15:30;;;;;;;9.67;8.63;;;;;;;6.11;65.04;100230.88;5054380;28;20190;-54
2022/11/26 05:17:58;;;;;;;11.13;7.50;;;;;;;6.15;65.42;100242.13;5054098;28;20219;-54
2022/11/26 05:20:25;;;;;;;10.13;8.10;;;;;;;6.17;65.28;100241.38;5054404;28;20667;-54
2022/11/26 05:22:52;;;;;;;11.43;7.90;;;;;;;6.22;65.70;100241.56;5054156;28;20255;-54
2022/11/26 05:25:19;;;;;;;8.93;7.73;;;;;;;6.20;65.61;100243.19;5054490;28;20658;-54
2022/11/26 05:27:46;;;;;;;10.53;7.20;;;;;;;6.18;64.80;100250.75;5054141;28;20190;-54
2022/11/26 05:30:13;;;;;;;10.70;8.00;;;;;;;6.09;65.30;100247.81;5051325;28;20203;-55
2022/11/26 05:32:41;;;;;;;13.67;7.73;;;;;;;6.00;65.39;100234.63;5054469;28;20198;-54
2022/11/26 05:35:10;;;;;;;9.00;7.37;;;;;;;6.02;65.39;100250.88;5054253;28;20215;-55
2022/11/26 05:37:37;;;;;;;9.37;8.23;;;;;;;6.01;65.57;100253.34;5052259;28;20214;-55
2022/11/26 05:40:05;;;;;;;10.18;8.00;;;;;;;5.97;66.09;100243.81;5055167;28;20717;-55
2022/11/26 05:42:32;;;;;;;11.97;7.37;;;;;;;5.97;65.68;100247.22;5054499;28;20679;-55
2022/11/26 05:44:58;;;;;;;10.03;7.87;;;;;;;5.98;66.47;100254.09;5053846;28;20196;-55
2022/11/26 05:47:25;;;;;;;10.27;7.43;;;;;;;5.93;67.12;100261.50;5054446;28;20241;-54
2022/11/26 05:49:52;;;;;;;10.67;8.30;;;;;;;5.91;66.85;100257.13;5054279;28;20190;-54
2022/11/26 05:52:21;;;;;;;11.00;8.60;;;;;;;5.90;66.58;100260.50;5054430;28;20187;-54
2022/11/26 05:54:48;;;;;;;10.23;8.67;;;;;;;5.87;67.20;100257.81;5055033;28;20260;-54
2022/11/26 05:57:15;;;;;;;12.20;8.50;;;;;;;5.91;66.39;100264.78;5054205;28;20673;-54
2022/11/26 05:59:42;;;;;;;12.93;7.63;;;;;;;5.89;66.03;100258.75;5054098;28;20690;-54
2022/11/26 06:02:08;;;;;;;10.93;7.73;;;;;;;5.91;66.41;100267.34;5054205;28;20222;-54
2022/11/26 06:04:35;;;;;;;9.40;8.33;;;;;;;5.94;66.02;100268.38;5053858;28;20190;-54
2022/11/26 06:07:02;;;;;;;12.40;8.20;;;;;;;6.00;65.72;100272.00;5054093;28;20191;-54
2022/11/26 06:09:30;;;;;;;14.10;8.37;;;;;;;6.06;65.20;100277.41;5054139;28;20201;-54
2022/11/26 06:11:57;;;;;;;11.10;8.70;;;;;;;6.12;65.46;100267.47;5053887;28;20668;-54
2022/11/26 06:14:23;;;;;;;11.53;9.77;;;;;;;6.16;65.50;100279.56;5053924;28;20198;-54
2022/11/26 06:16:50;;;;;;;12.77;9.67;;;;;;;6.20;65.32;100269.59;5052902;28;20548;-55
2022/11/26 06:19:17;;;;;;;13.60;9.10;;;;;;;6.23;64.68;100276.50;5053896;28;20230;-55
2022/11/26 06:21:44;;;;;;;12.03;9.00;;;;;;;6.25;65.00;100283.41;5053532;28;20695;-54
2022/11/26 06:24:11;;;;;;;10.57;8.17;;;;;;;6.22;64.20;100267.97;5043028;28;20549;-55
2022/11/26 06:26:39;;;;;;;14.53;8.77;;;;;;;6.35;63.59;100282.13;5048985;28;20203;-55
2022/11/26 06:29:06;;;;;;;10.77;7.57;;;;;;;6.43;64.01;100285.91;5070230;28;20248;-55
2022/11/26 06:31:33;;;;;;;10.57;8.40;;;;;;;6.46;63.49;100302.25;5061315;28;20245;-56
2022/11/26 06:34:00;;;;;;;10.10;8.00;;;;;;;6.53;63.28;100299.19;5053327;28;20238;-55
2022/11/26 06:36:27;;;;;;;9.80;7.73;;;;;;;6.66;62.51;100297.16;5052304;28;20194;-54
2022/11/26 06:38:53;;;;;;;9.63;7.80;;;;;;;6.63;62.74;100305.56;5052616;28;20223;-55
2022/11/26 06:41:20;;;;;;;11.57;7.90;;;;;;;7.18;60.98;100293.50;5052715;28;20194;-55
2022/11/26 06:43:48;;;;;;;8.80;7.23;;;;;;;8.16;56.68;100301.75;5050174;28;20241;-55
2022/11/26 06:46:15;;;;;;;10.97;8.37;;;;;;;8.25;55.62;100299.56;5052544;28;20181;-55
2022/11/26 06:48:42;;;;;;;10.97;8.63;;;;;;;8.05;55.86;100303.91;5052346;28;20200;-55
2022/11/26 06:51:11;;;;;;;12.47;8.50;;;;;;;7.78;56.47;100307.06;5054387;28;20203;-55
2022/11/26 06:53:38;;;;;;;12.90;8.90;;;;;;;7.50;57.51;100300.81;5052533;28;20199;-55
2022/11/26 06:56:10;;;;;;;12.10;8.17;;;;;;;7.41;58.52;100304.69;5051398;28;20192;-55
2022/11/26 06:58:37;;;;;;;9.93;7.90;;;;;;;7.21;58.79;100285.97;5045914;28;20223;-54
2022/11/26 07:01:09;;;;;;;10.40;6.63;;;;;;;7.25;58.96;100303.16;5045796;28;20258;-54
2022/11/26 07:03:36;;;;;;;10.97;7.20;;;;;;;7.25;59.37;100308.28;5033260;28;20196;-54
2022/11/26 07:06:03;;;;;;;8.77;7.03;;;;;;;7.09;59.80;100282.88;5033138;28;20206;-55
2022/11/26 07:08:30;;;;;;;12.40;7.60;;;;;;;7.29;59.95;100317.84;5032805;28;20200;-54
2022/11/26 07:11:04;;;;;;;14.33;7.70;;;;;;;7.31;60.01;100305.09;5032737;28;20195;-55
2022/11/26 07:13:30;;;;;;;11.67;7.27;;;;;;;7.35;60.21;100312.09;5032721;28;20280;-55
2022/11/26 07:16:02;;;;;;;10.30;7.30;;;;;;;7.32;60.11;100307.75;5046165;28;20202;-55
2022/11/26 07:18:30;;;;;;;14.17;7.23;;;;;;;7.46;59.41;100303.19;5059866;28;20590;-55
2022/11/26 07:20:58;;;;;;;9.63;7.40;;;;;;;7.53;58.60;100306.06;5072702;28;20193;-55
2022/11/26 07:23:25;;;;;;;9.63;7.80;;;;;;;7.68;58.79;100308.38;5062970;28;20507;-55
2022/11/26 07:25:52;;;;;;;9.17;7.13;;;;;;;7.82;58.77;100296.16;5072141;28;20550;-55
2022/11/26 07:28:18;;;;;;;11.67;7.07;;;;;;;7.86;59.65;100306.56;5072776;28;20199;-55
2022/11/26 07:30:45;;;;;;;12.00;6.90;;;;;;;7.91;59.38;100302.47;5072065;28;20198;-55
2022/11/26 07:33:12;;;;;;;10.07;7.87;;;;;;;8.00;58.77;100301.97;5050022;28;20188;-57
2022/11/26 07:35:40;;;;;;;9.63;6.97;;;;;;;8.04;58.88;100296.19;5049822;28;20220;-55
2022/11/26 07:38:07;;;;;;;12.98;8.10;;;;;;;8.21;59.09;100290.03;5069732;28;20441;-55
2022/11/26 07:40:34;;;;;;;11.03;7.10;;;;;;;8.34;58.68;100287.16;5072305;28;20203;-55
2022/11/26 07:43:00;;;;;;;11.20;7.40;;;;;;;8.43;58.46;100297.75;5071687;28;20191;-55
2022/11/26 07:45:27;;;;;;;10.00;7.77;;;;;;;8.42;58.62;100274.63;5071825;28;20194;-54
2022/11/26 07:47:54;;;;;;;11.07;8.30;;;;;;;8.57;59.03;100288.00;5060206;28;20200;-55
2022/11/26 07:50:21;;;;;;;13.30;8.77;;;;;;;8.51;59.97;100286.09;5052384;28;20245;-54
2022/11/26 07:52:51;;;;;;;9.30;8.30;;;;;;;8.62;60.78;100294.16;5062290;28;20195;-54
2022/11/26 07:55:18;;;;;;;11.50;9.20;;;;;;;8.62;61.57;100294.16;5069896;28;20644;-55
2022/11/26 07:57:45;;;;;;;17.17;10.03;;;;;;;8.67;62.00;100303.75;5071960;28;20187;-55
2022/11/26 08:00:13;;;;;;;9.83;8.83;;;;;;;8.67;62.32;100296.06;5071713;28;20226;-54
2022/11/26 08:02:40;;;;;;;10.87;8.97;;;;;;;8.74;61.86;100297.16;5070929;28;20187;-54
2022/11/26 08:05:07;;;;;;;11.27;8.93;;;;;;;8.73;61.92;100295.44;5049424;28;20192;-55
2022/11/26 08:07:35;;;;;;;14.37;9.20;;;;;;;8.81;61.27;100304.25;5049595;28;20195;-55
2022/11/26 08:10:03;;;;;;;10.87;8.83;;;;;;;8.75;61.44;100296.34;5049801;28;20629;-55
2022/11/26 08:12:30;;;;;;;10.97;8.13;;;;;;;8.78;60.39;100305.03;5047793;28;20192;-55
2022/11/26 08:14:57;;;;;;;10.37;7.00;;;;;;;8.81;58.53;100297.44;5050175;28;20661;-55
2022/11/26 08:17:24;;;;;;;10.70;7.43;;;;;;;8.83;58.05;100294.94;5050328;28;20666;-55
2022/11/26 08:19:50;;;;;;;8.63;7.27;;;;;;;8.87;58.18;100302.78;5050392;28;20215;-55
2022/11/26 08:22:17;;;;;;;13.97;7.80;;;;;;;8.98;57.42;100298.06;5050822;28;20203;-54
2022/11/26 08:24:44;;;;;;;8.27;7.40;;;;;;;8.94;56.83;100283.38;5049257;28;20203;-55
2022/11/26 08:27:12;;;;;;;10.83;7.20;;;;;;;9.11;55.95;100302.78;5046204;28;20198;-55
2022/11/26 08:29:39;;;;;;;10.63;8.50;;;;;;;9.17;55.14;100304.69;5054231;28;20435;-54
2022/11/26 08:32:06;;;;;;;11.07;7.93;;;;;;;9.26;55.02;100290.47;5053044;28;20196;-54
2022/11/26 08:34:33;;;;;;;9.30;7.73;;;;;;;9.40;54.22;100299.50;5050492;28;20231;-53
2022/11/26 08:36:59;;;;;;;8.57;6.53;;;;;;;9.48;53.75;100305.75;5036481;28;20205;-54
2022/11/26 08:39:26;;;;;;;12.97;6.73;;;;;;;9.50;53.64;100300.72;5031137;28;20224;-54
2022/11/26 08:41:54;;;;;;;7.67;6.13;;;;;;;9.47;53.50;100291.22;5031560;28;20651;-54
2022/11/26 08:44:22;;;;;;;8.43;6.80;;;;;;;9.39;53.81;100281.53;5066689;28;20227;-54
2022/11/26 08:46:49;;;;;;;6.93;6.23;;;;;;;9.50;53.64;100298.13;5054951;28;20559;-55
2022/11/26 08:49:16;;;;;;;9.23;6.07;;;;;;;9.57;53.00;100299.19;5053126;28;20202;-54
2022/11/26 08:51:44;;;;;;;13.37;6.60;;;;;;;9.12;52.88;100222.47;5051905;28;20196;-54
2022/11/26 08:54:11;;;;;;;8.33;6.77;;;;;;;9.65;52.88;100300.31;5066137;28;20658;-55
2022/11/26 08:56:38;;;;;;;7.03;6.10;;;;;;;9.70;52.64;100307.34;5051899;28;20196;-55
2022/11/26 08:59:05;;;;;;;9.63;6.37;;;;;;;9.72;52.59;100307.41;5070544;28;20225;-55
2022/11/26 09:01:34;;;;;;;8.53;6.40;;;;;;;9.79;52.28;100299.94;5070444;28;20184;-55
2022/11/26 09:04:03;;;;;;;7.53;6.37;;;;;;;9.48;51.37;100233.94;5069475;28;20210;-55
2022/11/26 09:06:31;;;;;;;6.53;5.83;;;;;;;9.95;51.58;100314.13;5069774;28;20198;-55
2022/11/26 09:09:12;;;;;;;7.53;6.43;;;;;;;10.00;51.60;100313.44;5069669;28;20429;-55
2022/11/26 09:11:40;;;;;;;10.50;6.97;;;;;;;9.94;51.65;100297.84;5070158;28;20437;-55
2022/11/26 09:14:08;;;;;;;8.57;6.60;;;;;;;9.96;51.80;100293.66;5068882;28;20194;-55
2022/11/26 09:16:37;;;;;;;7.43;6.63;;;;;;;10.20;51.05;100308.09;5061251;28;20192;-54
2022/11/26 09:19:05;;;;;;;7.20;6.50;;;;;;;10.33;50.72;100312.81;5045017;28;20237;-54
2022/11/26 09:21:33;;;;;;;9.93;7.03;;;;;;;10.35;50.62;100306.00;5054587;28;20199;-54
2022/11/26 09:24:00;;;;;;;8.97;7.30;;;;;;;10.38;50.87;100306.09;5054326;28;20188;-54
2022/11/26 09:26:27;;;;;;;9.27;7.53;;;;;;;10.45;50.75;100297.75;5054560;28;20253;-54
2022/11/26 09:28:54;;;;;;;11.60;7.80;;;;;;;10.44;50.95;100293.41;5054495;28;20242;-55
2022/11/26 09:31:21;;;;;;;8.37;7.57;;;;;;;10.45;50.57;100272.03;5054693;28;20192;-54
2022/11/26 09:33:49;;;;;;;9.57;8.37;;;;;;;10.60;51.00;100283.63;5054142;28;20219;-55
2022/11/26 09:36:18;;;;;;;10.87;8.17;;;;;;;10.74;50.09;100284.00;5054417;28;20196;-55
2022/11/26 09:38:45;;;;;;;10.10;7.77;;;;;;;10.77;49.96;100284.09;5054316;28;20224;-55
2022/11/26 09:41:24;;;;;;;9.73;7.30;;;;;;;10.82;48.83;100282.56;5054623;28;20188;-55
2022/11/26 09:44:08;;;;;;;8.33;7.50;;;;;;;10.84;49.23;100277.44;5054523;28;20195;-55
2022/11/26 09:46:40;;;;;;;8.70;7.80;;;;;;;10.88;49.42;100277.56;5053791;28;20582;-55
2022/11/26 09:49:13;;;;;;;14.17;8.07;;;;;;;10.75;48.82;100242.06;5053998;28;20223;-55
2022/11/26 09:51:43;;;;;;;11.80;7.23;;;;;;;10.92;48.36;100268.25;5053687;28;20295;-54
2022/11/26 09:54:17;;;;;;;11.40;7.40;;;;;;;10.90;48.25;100259.63;5053803;28;20254;-55
2022/11/26 09:56:48;;;;;;;12.53;7.67;;;;;;;10.99;47.89;100257.28;5053739;28;20658;-55
2022/11/26 09:59:19;;;;;;;8.60;7.07;;;;;;;11.07;47.16;100255.81;5052516;28;20216;-55
2022/11/26 10:01:45;;;;;;;8.43;7.25;;;;;;;11.14;46.56;100248.28;5052932;28;20436;-55
2022/11/26 10:04:23;;;;;;;8.10;6.40;;;;;;;11.27;46.22;100258.06;5053583;28;20651;-53
2022/11/26 10:07:00;;;;;;;6.93;5.87;;;;;;;11.34;45.70;100245.34;5050043;28;20188;-53
2022/11/26 10:09:51;;;;;;;7.00;5.83;;;;;;;11.39;46.11;100246.31;5034887;28;20263;-54
2022/11/26 10:12:31;;;;;;;7.63;5.90;;;;;;;11.46;45.52;100237.91;5033709;28;20189;-55
2022/11/26 10:15:06;;;;;;;7.83;5.57;;;;;;;11.54;44.68;100232.13;5033571;28;20238;-56
2022/11/26 10:17:40;;;;;;;6.93;5.63;;;;;;;11.57;44.65;100236.47;5033748;28;20188;-55
2022/11/26 10:20:39;;;;;;;6.17;5.00;;;;;;;11.63;44.60;100239.19;5033966;28;20227;-54
2022/11/26 10:23:17;;;;;;;7.10;4.83;;;;;;;11.60;44.40;100236.53;5036569;28;20205;-54
2022/11/26 10:25:47;;;;;;;6.07;5.47;;;;;;;11.56;44.40;100233.06;5036186;28;20738;-55
2022/11/26 10:28:19;;;;;;;6.47;5.40;;;;;;;11.66;44.37;100239.28;5033111;28;20648;-54
2022/11/26 10:30:52;;;;;;;8.07;6.37;;;;;;;11.71;44.32;100229.97;5032039;28;20659;-54
2022/11/26 10:33:20;;;;;;;7.20;5.87;;;;;;;11.63;44.54;100218.59;5033400;28;20559;-54
2022/11/26 10:35:49;;;;;;;6.87;6.17;;;;;;;11.71;44.70;100224.84;5033461;28;20662;-54
2022/11/26 10:38:17;;;;;;;7.70;6.33;;;;;;;11.82;44.72;100223.38;5033436;28;20258;-55
2022/11/26 10:40:44;;;;;;;7.27;5.43;;;;;;;11.82;43.41;100216.53;5033265;28;20217;-54
2022/11/26 10:43:17;;;;;;;7.17;6.47;;;;;;;11.89;44.40;100214.09;5033426;28;20660;-54
2022/11/26 10:45:47;;;;;;;7.60;6.40;;;;;;;11.86;44.02;100209.75;5033372;28;20284;-54
2022/11/26 10:48:18;;;;;;;7.63;5.27;;;;;;;11.95;43.04;100215.09;5033043;28;20189;-55
2022/11/26 10:50:58;;;;;;;7.33;5.87;;;;;;;11.97;43.36;100205.72;5032891;28;20690;-55
2022/11/26 10:53:26;;;;;;;7.00;5.47;;;;;;;11.99;44.14;100210.88;5032585;28;20280;-55
2022/11/26 10:55:55;;;;;;;6.40;5.60;;;;;;;12.05;43.94;100209.31;5032736;28;20737;-55
2022/11/26 10:58:25;;;;;;;6.63;5.93;;;;;;;12.04;44.18;100209.28;5032873;28;20219;-55
2022/11/26 11:01:02;;;;;;;6.13;5.53;;;;;;;12.12;44.06;100218.03;5032492;28;20564;-55
2022/11/26 11:03:33;;;;;;;7.53;6.53;;;;;;;12.13;43.62;100207.78;5032638;28;20200;-55
2022/11/26 11:06:27;;;;;;;7.17;6.00;;;;;;;12.24;43.28;100216.59;5065693;28;20654;-55
2022/11/26 11:08:54;;;;;;;5.77;4.73;;;;;;;12.22;41.68;100207.94;5058971;28;20204;-55
2022/11/26 11:11:23;;;;;;;6.33;4.93;;;;;;;12.28;41.79;100210.66;5072756;28;20183;-55
2022/11/26 11:13:50;;;;;;;5.40;4.77;;;;;;;12.36;41.33;100203.94;5072267;28;20279;-55
2022/11/26 11:16:25;;;;;;;16.07;12.93;;;;;;;12.43;42.77;100200.69;5052217;28;20197;-54
2022/11/26 11:18:55;;;;;;;24.30;15.67;;;;;;;12.44;42.99;100199.81;5031983;28;20189;-55
2022/11/26 11:21:29;;;;;;;17.80;13.53;;;;;;;12.46;43.02;100202.44;5030438;28;20192;-55
2022/11/26 11:24:08;;;;;;;14.03;10.20;;;;;;;12.58;42.95;100202.66;5030529;28;20189;-55
2022/11/26 11:26:42;;;;;;;7.63;6.68;;;;;;;12.65;42.07;100201.97;5029927;28;20499;-55
2022/11/26 11:29:24;;;;;;;7.30;5.60;;;;;;;12.67;42.07;100200.28;5030713;28;20266;-55
2022/11/26 11:31:52;;;;;;;5.13;4.63;;;;;;;12.71;41.24;100199.50;5032041;28;20224;-55
2022/11/26 11:34:21;;;;;;;5.63;5.13;;;;;;;12.75;40.93;100193.53;5031689;28;20278;-55
2022/11/26 11:37:00;;;;;;;7.00;6.30;;;;;;;12.73;41.12;100173.75;5028961;28;20444;-55
2022/11/26 11:39:29;;;;;;;6.93;5.77;;;;;;;12.81;40.72;100198.81;5030230;28;20595;-55